sensor_id;sensor_type;location;lat;lon;timestamp;pressure;altitude;pressure_sealevel;temperature;humidity
1472;BME280;963;42.644;23.336;2023-08-01T00:01:57;93887.38;;;22.85;59.25
1472;BME280;963;42.644;23.336;2023-08-01T00:04:23;93876.78;;;22.81;60.15
1472;BME280;963;42.644;23.336;2023-08-01T00:06:48;93873.66;;;22.83;59.54
1472;BME280;963;42.644;23.336;2023-08-01T00:09:13;93870.34;;;22.78;59.38
1472;BME280;963;42.644;23.336;2023-08-01T00:11:39;93855.25;;;22.72;59.89
1472;BME280;963;42.644;23.336;2023-08-01T00:14:04;93872.72;;;22.76;59.44
1472;BME280;963;42.644;23.336;2023-08-01T00:16:29;93880.38;;;22.65;60.23
1472;BME280;963;42.644;23.336;2023-08-01T00:18:56;93868.22;;;22.73;59.71
1472;BME280;963;42.644;23.336;2023-08-01T00:21:21;93874.78;;;22.72;59.44
1472;BME280;963;42.644;23.336;2023-08-01T00:23:46;93864.63;;;22.67;59.62
1472;BME280;963;42.644;23.336;2023-08-01T00:26:12;93865.44;;;22.55;59.83
1472;BME280;963;42.644;23.336;2023-08-01T00:28:37;93866.38;;;22.61;59.94
1472;BME280;963;42.644;23.336;2023-08-01T00:31:07;93868.75;;;22.59;59.90
1472;BME280;963;42.644;23.336;2023-08-01T00:33:34;93853.06;;;22.49;60.13
1472;BME280;963;42.644;23.336;2023-08-01T00:36:00;93881.53;;;22.55;60.07
1472;BME280;963;42.644;23.336;2023-08-01T00:38:26;93877.81;;;22.53;60.49
1472;BME280;963;42.644;23.336;2023-08-01T00:40:51;93868.72;;;22.50;60.43
1472;BME280;963;42.644;23.336;2023-08-01T00:43:17;93869.91;;;22.49;60.78
1472;BME280;963;42.644;23.336;2023-08-01T00:45:42;93876.75;;;22.50;60.59
1472;BME280;963;42.644;23.336;2023-08-01T00:48:08;93870.47;;;22.44;60.54
1472;BME280;963;42.644;23.336;2023-08-01T00:50:34;93862.44;;;22.44;60.12
1472;BME280;963;42.644;23.336;2023-08-01T00:53:00;93851.66;;;22.35;60.18
1472;BME280;963;42.644;23.336;2023-08-01T00:55:27;93858.06;;;22.37;60.13
1472;BME280;963;42.644;23.336;2023-08-01T00:57:54;93861.94;;;22.36;60.02
1472;BME280;963;42.644;23.336;2023-08-01T01:00:20;93857.25;;;22.28;60.05
1472;BME280;963;42.644;23.336;2023-08-01T01:02:45;93859.19;;;22.27;59.77
1472;BME280;963;42.644;23.336;2023-08-01T01:05:12;93850.41;;;22.27;59.84
1472;BME280;963;42.644;23.336;2023-08-01T01:07:39;93875.91;;;22.31;60.13
1472;BME280;963;42.644;23.336;2023-08-01T01:10:05;93860.25;;;22.30;59.75
1472;BME280;963;42.644;23.336;2023-08-01T01:12:30;93864.13;;;22.29;59.78
1472;BME280;963;42.644;23.336;2023-08-01T01:14:56;93844.56;;;22.19;59.60
1472;BME280;963;42.644;23.336;2023-08-01T01:17:21;93846.38;;;22.22;59.82
1472;BME280;963;42.644;23.336;2023-08-01T01:19:46;93846.97;;;22.26;59.61
1472;BME280;963;42.644;23.336;2023-08-01T01:22:12;93846.97;;;22.26;60.27
1472;BME280;963;42.644;23.336;2023-08-01T01:24:39;93848.59;;;22.24;59.89
1472;BME280;963;42.644;23.336;2023-08-01T01:27:07;93841.13;;;22.19;59.94
1472;BME280;963;42.644;23.336;2023-08-01T01:29:33;93825.31;;;22.11;60.13
1472;BME280;963;42.644;23.336;2023-08-01T01:32:00;93833.53;;;22.17;60.41
1472;BME280;963;42.644;23.336;2023-08-01T01:34:27;93837.88;;;22.24;60.04
1472;BME280;963;42.644;23.336;2023-08-01T01:36:53;93839.81;;;22.23;60.04
1472;BME280;963;42.644;23.336;2023-08-01T01:39:18;93844.13;;;22.21;60.24
1472;BME280;963;42.644;23.336;2023-08-01T01:41:44;93837.88;;;22.24;59.77
1472;BME280;963;42.644;23.336;2023-08-01T01:44:09;93828.19;;;22.17;59.76
1472;BME280;963;42.644;23.336;2023-08-01T01:46:35;93825.31;;;22.11;60.24
1472;BME280;963;42.644;23.336;2023-08-01T01:49:00;93822.94;;;22.13;60.30
1472;BME280;963;42.644;23.336;2023-08-01T01:51:26;93824.56;;;22.11;60.24
1472;BME280;963;42.644;23.336;2023-08-01T01:53:52;93833.78;;;22.10;59.93
1472;BME280;963;42.644;23.336;2023-08-01T01:56:17;93832.91;;;22.13;59.90
1472;BME280;963;42.644;23.336;2023-08-01T01:58:42;93846.00;;;22.11;60.32
1472;BME280;963;42.644;23.336;2023-08-01T02:01:08;93850.63;;;22.10;60.22
1472;BME280;963;42.644;23.336;2023-08-01T02:03:33;93845.88;;;22.14;60.04
1472;BME280;963;42.644;23.336;2023-08-01T02:05:59;93845.13;;;22.14;60.19
1472;BME280;963;42.644;23.336;2023-08-01T02:08:24;93840.81;;;22.17;60.33
1472;BME280;963;42.644;23.336;2023-08-01T02:10:49;93836.97;;;22.18;60.56
1472;BME280;963;42.644;23.336;2023-08-01T02:13:15;93839.66;;;22.18;60.24
1472;BME280;963;42.644;23.336;2023-08-01T02:15:40;93826.25;;;22.18;60.10
1472;BME280;963;42.644;23.336;2023-08-01T02:18:05;93839.19;;;22.19;60.06
1472;BME280;963;42.644;23.336;2023-08-01T02:20:31;93827.13;;;22.14;59.80
1472;BME280;963;42.644;23.336;2023-08-01T02:22:56;93836.53;;;22.19;58.98
1472;BME280;963;42.644;23.336;2023-08-01T02:25:22;93830.69;;;22.11;59.32
1472;BME280;963;42.644;23.336;2023-08-01T02:27:47;93848.56;;;22.14;59.38
1472;BME280;963;42.644;23.336;2023-08-01T02:30:13;93825.88;;;22.06;59.41
1472;BME280;963;42.644;23.336;2023-08-01T02:32:38;93840.78;;;22.07;59.20
1472;BME280;963;42.644;23.336;2023-08-01T02:35:04;93836.59;;;22.06;58.90
1472;BME280;963;42.644;23.336;2023-08-01T02:37:29;93837.78;;;22.05;59.24
1472;BME280;963;42.644;23.336;2023-08-01T02:39:56;93847.75;;;22.05;58.85
1472;BME280;963;42.644;23.336;2023-08-01T02:42:21;93857.09;;;22.00;58.85
1472;BME280;963;42.644;23.336;2023-08-01T02:44:46;93837.16;;;22.01;58.39
1472;BME280;963;42.644;23.336;2023-08-01T02:47:12;93825.94;;;21.94;58.52
1472;BME280;963;42.644;23.336;2023-08-01T02:49:37;93833.53;;;21.95;58.70
1472;BME280;963;42.644;23.336;2023-08-01T02:52:03;93831.03;;;21.79;58.56
1472;BME280;963;42.644;23.336;2023-08-01T02:54:28;93835.50;;;21.82;58.66
1472;BME280;963;42.644;23.336;2023-08-01T02:56:54;93819.50;;;21.69;58.94
1472;BME280;963;42.644;23.336;2023-08-01T02:59:19;93823.50;;;21.65;58.90
1472;BME280;963;42.644;23.336;2023-08-01T03:01:45;93828.28;;;21.70;58.95
1472;BME280;963;42.644;23.336;2023-08-01T03:04:10;93837.06;;;21.70;58.92
1472;BME280;963;42.644;23.336;2023-08-01T03:06:37;93846.91;;;21.73;59.00
1472;BME280;963;42.644;23.336;2023-08-01T03:09:03;93835.75;;;21.75;59.15
1472;BME280;963;42.644;23.336;2023-08-01T03:11:28;93842.44;;;21.70;58.88
1472;BME280;963;42.644;23.336;2023-08-01T03:13:54;93829.72;;;21.62;58.77
1472;BME280;963;42.644;23.336;2023-08-01T03:16:20;93833.03;;;21.66;59.30
1472;BME280;963;42.644;23.336;2023-08-01T03:18:45;93833.16;;;21.62;59.17
1472;BME280;963;42.644;23.336;2023-08-01T03:21:11;93840.75;;;21.64;59.03
1472;BME280;963;42.644;23.336;2023-08-01T03:23:36;93843.84;;;21.62;58.71
1472;BME280;963;42.644;23.336;2023-08-01T03:26:02;93835.19;;;21.58;59.28
1472;BME280;963;42.644;23.336;2023-08-01T03:28:28;93866.88;;;21.60;58.52
1472;BME280;963;42.644;23.336;2023-08-01T03:30:54;93844.91;;;21.65;58.31
1472;BME280;963;42.644;23.336;2023-08-01T03:33:20;93842.25;;;21.65;58.61
1472;BME280;963;42.644;23.336;2023-08-01T03:35:45;93837.44;;;21.60;58.59
1472;BME280;963;42.644;23.336;2023-08-01T03:38:11;93841.00;;;21.57;58.45
1472;BME280;963;42.644;23.336;2023-08-01T03:40:36;93860.03;;;21.59;58.52
1472;BME280;963;42.644;23.336;2023-08-01T03:43:02;93864.00;;;21.54;58.55
1472;BME280;963;42.644;23.336;2023-08-01T03:45:27;93848.19;;;21.47;58.82
1472;BME280;963;42.644;23.336;2023-08-01T03:47:53;93857.25;;;21.49;59.18
1472;BME280;963;42.644;23.336;2023-08-01T03:50:18;93862.63;;;21.49;59.26
1472;BME280;963;42.644;23.336;2023-08-01T03:52:44;93856.00;;;21.41;59.41
1472;BME280;963;42.644;23.336;2023-08-01T03:55:10;93848.22;;;21.34;59.54
1472;BME280;963;42.644;23.336;2023-08-01T03:57:35;93856.13;;;21.38;59.87
1472;BME280;963;42.644;23.336;2023-08-01T04:00:01;93862.50;;;20.55;64.62
1472;BME280;963;42.644;23.336;2023-08-01T04:02:28;93865.81;;;20.72;65.85
1472;BME280;963;42.644;23.336;2023-08-01T04:04:53;93864.41;;;20.92;65.83
1472;BME280;963;42.644;23.336;2023-08-01T04:07:18;93888.56;;;21.02;66.53
1472;BME280;963;42.644;23.336;2023-08-01T04:09:44;93874.16;;;20.86;66.81
1472;BME280;963;42.644;23.336;2023-08-01T04:12:09;93894.88;;;20.70;67.96
1472;BME280;963;42.644;23.336;2023-08-01T04:14:35;93878.00;;;20.73;67.77
1472;BME280;963;42.644;23.336;2023-08-01T04:17:00;93854.47;;;20.68;68.26
1472;BME280;963;42.644;23.336;2023-08-01T04:19:25;93877.56;;;20.74;68.27
1472;BME280;963;42.644;23.336;2023-08-01T04:21:51;93866.66;;;20.69;68.37
1472;BME280;963;42.644;23.336;2023-08-01T04:24:16;93877.06;;;20.38;69.86
1472;BME280;963;42.644;23.336;2023-08-01T04:26:42;93866.56;;;20.47;69.45
1472;BME280;963;42.644;23.336;2023-08-01T04:29:07;93877.56;;;20.62;69.35
1472;BME280;963;42.644;23.336;2023-08-01T04:31:32;93879.59;;;20.70;68.86
1472;BME280;963;42.644;23.336;2023-08-01T04:33:58;93871.09;;;20.34;69.32
1472;BME280;963;42.644;23.336;2023-08-01T04:36:23;93872.31;;;20.58;68.78
1472;BME280;963;42.644;23.336;2023-08-01T04:38:49;93873.72;;;20.75;68.56
1472;BME280;963;42.644;23.336;2023-08-01T04:41:14;93880.97;;;20.75;68.44
1472;BME280;963;42.644;23.336;2023-08-01T04:43:39;93869.34;;;20.14;70.72
1472;BME280;963;42.644;23.336;2023-08-01T04:46:05;93872.31;;;20.58;68.51
1472;BME280;963;42.644;23.336;2023-08-01T04:48:30;93882.91;;;20.49;68.78
1472;BME280;963;42.644;23.336;2023-08-01T04:50:55;93869.88;;;20.64;68.43
1472;BME280;963;42.644;23.336;2023-08-01T04:53:21;93882.38;;;20.54;68.47
1472;BME280;963;42.644;23.336;2023-08-01T04:55:46;93879.59;;;20.70;67.38
1472;BME280;963;42.644;23.336;2023-08-01T04:58:12;93872.13;;;20.65;67.33
1472;BME280;963;42.644;23.336;2023-08-01T05:00:37;93873.28;;;20.51;68.08
1472;BME280;963;42.644;23.336;2023-08-01T05:03:03;93869.06;;;20.38;68.70
1472;BME280;963;42.644;23.336;2023-08-01T05:05:28;93854.25;;;20.62;67.20
1472;BME280;963;42.644;23.336;2023-08-01T05:07:54;93870.00;;;20.85;67.26
1472;BME280;963;42.644;23.336;2023-08-01T05:10:19;93866.53;;;20.72;67.07
1472;BME280;963;42.644;23.336;2023-08-01T05:12:45;93886.34;;;20.87;65.74
1472;BME280;963;42.644;23.336;2023-08-01T05:15:10;93852.97;;;20.79;65.50
1472;BME280;963;42.644;23.336;2023-08-01T05:17:36;93869.53;;;21.00;65.53
1472;BME280;963;42.644;23.336;2023-08-01T05:20:01;93859.16;;;21.02;64.83
1472;BME280;963;42.644;23.336;2023-08-01T05:22:29;93889.41;;;21.11;64.47
1472;BME280;963;42.644;23.336;2023-08-01T05:24:54;93876.78;;;21.12;64.65
1472;BME280;963;42.644;23.336;2023-08-01T05:27:20;93859.88;;;21.15;64.25
1472;BME280;963;42.644;23.336;2023-08-01T05:29:45;93876.28;;;21.30;64.00
1472;BME280;963;42.644;23.336;2023-08-01T05:32:10;93881.28;;;21.40;64.03
1472;BME280;963;42.644;23.336;2023-08-01T05:34:36;93872.06;;;21.41;63.94
1472;BME280;963;42.644;23.336;2023-08-01T05:37:01;93873.31;;;21.49;64.16
1472;BME280;963;42.644;23.336;2023-08-01T05:39:27;93879.78;;;21.39;64.31
1472;BME280;963;42.644;23.336;2023-08-01T05:41:52;93874.25;;;21.56;63.46
1472;BME280;963;42.644;23.336;2023-08-01T05:44:18;93865.09;;;21.57;63.55
1472;BME280;963;42.644;23.336;2023-08-01T05:46:43;93872.94;;;21.73;61.87
1472;BME280;963;42.644;23.336;2023-08-01T05:49:08;93854.81;;;21.77;61.99
1472;BME280;963;42.644;23.336;2023-08-01T05:51:34;93867.41;;;21.89;61.61
1472;BME280;963;42.644;23.336;2023-08-01T05:53:59;93859.69;;;21.91;61.48
1472;BME280;963;42.644;23.336;2023-08-01T05:56:25;93854.75;;;21.90;60.85
1472;BME280;963;42.644;23.336;2023-08-01T05:58:50;93861.25;;;22.01;60.49
1472;BME280;963;42.644;23.336;2023-08-01T06:01:16;93851.06;;;22.09;59.35
1472;BME280;963;42.644;23.336;2023-08-01T06:03:42;93864.59;;;22.05;58.81
1472;BME280;963;42.644;23.336;2023-08-01T06:06:08;93863.19;;;22.23;58.17
1472;BME280;963;42.644;23.336;2023-08-01T06:08:33;93853.09;;;22.27;57.80
1472;BME280;963;42.644;23.336;2023-08-01T06:10:58;93846.22;;;22.26;58.75
1472;BME280;963;42.644;23.336;2023-08-01T06:13:24;93881.69;;;22.30;59.64
1472;BME280;963;42.644;23.336;2023-08-01T06:15:49;93850.09;;;22.25;57.85
1472;BME280;963;42.644;23.336;2023-08-01T06:18:15;93865.09;;;22.44;57.36
1472;BME280;963;42.644;23.336;2023-08-01T06:20:40;93862.06;;;22.33;57.82
1472;BME280;963;42.644;23.336;2023-08-01T06:23:06;93857.06;;;22.44;57.61
1472;BME280;963;42.644;23.336;2023-08-01T06:25:31;93839.78;;;22.45;54.57
1472;BME280;963;42.644;23.336;2023-08-01T06:27:56;93854.25;;;22.48;54.09
1472;BME280;963;42.644;23.336;2023-08-01T06:30:22;93862.50;;;22.62;53.89
1472;BME280;963;42.644;23.336;2023-08-01T06:32:48;93845.88;;;22.36;54.41
1472;BME280;963;42.644;23.336;2023-08-01T06:35:13;93853.81;;;22.49;54.90
1472;BME280;963;42.644;23.336;2023-08-01T06:37:39;93844.44;;;22.54;54.51
1472;BME280;963;42.644;23.336;2023-08-01T06:40:05;93857.72;;;22.57;54.62
1472;BME280;963;42.644;23.336;2023-08-01T06:42:30;93845.00;;;22.80;53.98
1472;BME280;963;42.644;23.336;2023-08-01T06:44:56;93846.09;;;22.60;53.92
1472;BME280;963;42.644;23.336;2023-08-01T06:47:21;93850.38;;;22.80;53.45
1472;BME280;963;42.644;23.336;2023-08-01T06:49:47;93838.78;;;22.83;53.99
1472;BME280;963;42.644;23.336;2023-08-01T06:52:12;93853.56;;;22.87;53.68
1472;BME280;963;42.644;23.336;2023-08-01T06:54:38;93846.88;;;23.01;53.49
1472;BME280;963;42.644;23.336;2023-08-01T06:57:04;93843.94;;;23.08;53.00
1472;BME280;963;42.644;23.336;2023-08-01T06:59:29;93839.75;;;23.07;52.72
1472;BME280;963;42.644;23.336;2023-08-01T07:01:55;93859.47;;;23.22;53.06
1472;BME280;963;42.644;23.336;2023-08-01T07:04:20;93829.63;;;23.20;52.65
1472;BME280;963;42.644;23.336;2023-08-01T07:06:46;93856.03;;;23.31;53.51
1472;BME280;963;42.644;23.336;2023-08-01T07:09:11;93837.41;;;23.36;53.56
1472;BME280;963;42.644;23.336;2023-08-01T07:11:37;93846.06;;;23.31;53.07
1472;BME280;963;42.644;23.336;2023-08-01T07:14:02;93844.25;;;23.37;53.38
1472;BME280;963;42.644;23.336;2023-08-01T07:16:27;93832.34;;;23.29;53.29
1472;BME280;963;42.644;23.336;2023-08-01T07:18:54;93828.47;;;23.49;52.70
1472;BME280;963;42.644;23.336;2023-08-01T07:21:20;93842.53;;;23.62;52.86
1472;BME280;963;42.644;23.336;2023-08-01T07:23:45;93824.47;;;23.72;51.92
1472;BME280;963;42.644;23.336;2023-08-01T07:26:12;93831.34;;;23.73;52.14
1472;BME280;963;42.644;23.336;2023-08-01T07:28:37;93833.59;;;23.83;52.06
1472;BME280;963;42.644;23.336;2023-08-01T07:31:04;93837.63;;;23.88;51.70
1472;BME280;963;42.644;23.336;2023-08-01T07:33:31;93837.63;;;23.88;51.75
1472;BME280;963;42.644;23.336;2023-08-01T07:35:57;93824.03;;;23.91;52.05
1472;BME280;963;42.644;23.336;2023-08-01T07:38:22;93817.13;;;23.99;51.63
1472;BME280;963;42.644;23.336;2023-08-01T07:40:48;93826.50;;;24.13;51.64
1472;BME280;963;42.644;23.336;2023-08-01T07:43:13;93812.63;;;24.15;51.96
1472;BME280;963;42.644;23.336;2023-08-01T07:45:39;93817.25;;;24.33;51.25
1472;BME280;963;42.644;23.336;2023-08-01T07:48:04;93818.75;;;24.34;51.72
1472;BME280;963;42.644;23.336;2023-08-01T07:50:30;93823.03;;;24.40;51.20
1472;BME280;963;42.644;23.336;2023-08-01T07:52:55;93822.72;;;24.47;51.00
1472;BME280;963;42.644;23.336;2023-08-01T07:55:21;93826.44;;;24.50;50.49
1472;BME280;963;42.644;23.336;2023-08-01T07:57:50;93826.56;;;24.65;50.53
1472;BME280;963;42.644;23.336;2023-08-01T08:00:16;93826.16;;;24.57;50.48
1472;BME280;963;42.644;23.336;2023-08-01T08:02:42;93831.75;;;24.17;50.82
1472;BME280;963;42.644;23.336;2023-08-01T08:05:08;93824.84;;;24.34;50.59
1472;BME280;963;42.644;23.336;2023-08-01T08:07:35;93817.97;;;24.42;51.13
1472;BME280;963;42.644;23.336;2023-08-01T08:10:01;93807.16;;;24.51;51.58
1472;BME280;963;42.644;23.336;2023-08-01T08:12:26;93802.69;;;24.48;50.92
1472;BME280;963;42.644;23.336;2023-08-01T08:14:52;93812.81;;;24.62;50.81
1472;BME280;963;42.644;23.336;2023-08-01T08:17:17;93811.25;;;24.80;50.42
1472;BME280;963;42.644;23.336;2023-08-01T08:19:42;93798.63;;;24.53;50.65
1472;BME280;963;42.644;23.336;2023-08-01T08:22:08;93792.69;;;24.49;51.30
1472;BME280;963;42.644;23.336;2023-08-01T08:24:34;93811.97;;;24.80;50.66
1472;BME280;963;42.644;23.336;2023-08-01T08:27:00;93790.84;;;24.88;50.42
1472;BME280;963;42.644;23.336;2023-08-01T08:29:25;93800.06;;;25.05;50.08
1472;BME280;963;42.644;23.336;2023-08-01T08:31:51;93807.16;;;25.17;49.79
1472;BME280;963;42.644;23.336;2023-08-01T08:34:16;93791.66;;;25.12;49.27
1472;BME280;963;42.644;23.336;2023-08-01T08:36:41;93794.50;;;25.09;49.27
1472;BME280;963;42.644;23.336;2023-08-01T08:39:07;93789.31;;;25.05;50.08
1472;BME280;963;42.644;23.336;2023-08-01T08:41:54;93787.50;;;25.26;49.70
1472;BME280;963;42.644;23.336;2023-08-01T08:44:19;93789.97;;;25.39;49.26
1472;BME280;963;42.644;23.336;2023-08-01T08:46:53;93799.75;;;25.51;49.08
1472;BME280;963;42.644;23.336;2023-08-01T08:49:19;93779.50;;;25.55;48.06
1472;BME280;963;42.644;23.336;2023-08-01T08:51:47;93774.94;;;25.47;49.05
1472;BME280;963;42.644;23.336;2023-08-01T08:54:14;93774.09;;;25.41;48.63
1472;BME280;963;42.644;23.336;2023-08-01T08:56:41;93775.50;;;25.51;48.47
1472;BME280;963;42.644;23.336;2023-08-01T08:59:09;93775.16;;;25.58;48.80
1472;BME280;963;42.644;23.336;2023-08-01T09:01:36;93779.78;;;25.58;49.46
1472;BME280;963;42.644;23.336;2023-08-01T09:04:02;93762.03;;;25.75;48.19
1472;BME280;963;42.644;23.336;2023-08-01T09:06:30;93766.59;;;25.83;47.93
1472;BME280;963;42.644;23.336;2023-08-01T09:09:10;93763.97;;;25.89;46.89
1472;BME280;963;42.644;23.336;2023-08-01T09:11:48;93748.00;;;25.85;46.58
1472;BME280;963;42.644;23.336;2023-08-01T09:14:15;93753.09;;;25.98;46.52
1472;BME280;963;42.644;23.336;2023-08-01T09:16:41;93769.84;;;25.88;47.01
1472;BME280;963;42.644;23.336;2023-08-01T09:19:08;93747.28;;;25.61;47.50
1472;BME280;963;42.644;23.336;2023-08-01T09:21:35;93751.19;;;25.60;47.34
1472;BME280;963;42.644;23.336;2023-08-01T09:26:39;93744.31;;;25.59;48.25
1472;BME280;963;42.644;23.336;2023-08-01T09:29:05;93748.47;;;25.84;47.58
1472;BME280;963;42.644;23.336;2023-08-01T09:31:32;93741.41;;;25.86;47.51
1472;BME280;963;42.644;23.336;2023-08-01T09:33:59;93730.97;;;25.65;47.72
1472;BME280;963;42.644;23.336;2023-08-01T09:36:25;93740.97;;;25.64;47.95
1472;BME280;963;42.644;23.336;2023-08-01T09:38:51;93741.78;;;25.79;47.99
1472;BME280;963;42.644;23.336;2023-08-01T09:41:18;93721.88;;;25.92;47.94
1472;BME280;963;42.644;23.336;2023-08-01T09:43:45;93728.19;;;26.18;47.65
1472;BME280;963;42.644;23.336;2023-08-01T09:46:11;93731.91;;;26.35;47.01
1472;BME280;963;42.644;23.336;2023-08-01T09:48:37;93722.97;;;26.44;47.21
1472;BME280;963;42.644;23.336;2023-08-01T09:53:51;93721.31;;;26.17;46.83
1472;BME280;963;42.644;23.336;2023-08-01T09:56:22;93730.69;;;26.22;46.94
1472;BME280;963;42.644;23.336;2023-08-01T09:58:49;93714.94;;;26.50;46.81
1472;BME280;963;42.644;23.336;2023-08-01T10:01:18;93714.94;;;26.50;45.96
1472;BME280;963;42.644;23.336;2023-08-01T10:03:48;93701.19;;;26.47;46.53
1472;BME280;963;42.644;23.336;2023-08-01T10:06:24;93675.69;;;26.48;46.79
1472;BME280;963;42.644;23.336;2023-08-01T10:08:54;93692.03;;;26.60;46.31
1472;BME280;963;42.644;23.336;2023-08-01T10:11:22;93702.72;;;26.89;46.91
1472;BME280;963;42.644;23.336;2023-08-01T10:13:48;93680.31;;;27.03;46.28
1472;BME280;963;42.644;23.336;2023-08-01T10:16:14;93678.03;;;27.17;46.44
1472;BME280;963;42.644;23.336;2023-08-01T10:18:41;93687.03;;;27.34;45.45
1472;BME280;963;42.644;23.336;2023-08-01T10:21:08;93683.06;;;27.29;45.09
1472;BME280;963;42.644;23.336;2023-08-01T10:23:35;93680.16;;;27.33;45.38
1472;BME280;963;42.644;23.336;2023-08-01T10:26:04;93677.19;;;27.31;45.12
1472;BME280;963;42.644;23.336;2023-08-01T10:28:31;93684.28;;;27.28;45.09
1472;BME280;963;42.644;23.336;2023-08-01T10:31:15;93669.44;;;27.44;45.24
1472;BME280;963;42.644;23.336;2023-08-01T10:33:43;93673.22;;;27.52;44.60
1472;BME280;963;42.644;23.336;2023-08-01T10:36:22;93674.31;;;27.40;44.73
1472;BME280;963;42.644;23.336;2023-08-01T10:38:56;93672.44;;;27.72;44.43
1472;BME280;963;42.644;23.336;2023-08-01T10:44:24;93659.50;;;28.19;43.54
1472;BME280;963;42.644;23.336;2023-08-01T10:47:00;93655.97;;;28.33;43.78
1472;BME280;963;42.644;23.336;2023-08-01T10:52:01;93661.56;;;28.67;42.22
1472;BME280;963;42.644;23.336;2023-08-01T10:54:27;93647.09;;;28.81;42.91
1472;BME280;963;42.644;23.336;2023-08-01T10:56:55;93643.47;;;28.95;41.95
1472;BME280;963;42.644;23.336;2023-08-01T10:59:23;93642.78;;;29.06;41.56
1472;BME280;963;42.644;23.336;2023-08-01T11:01:50;93640.81;;;29.06;41.44
1472;BME280;963;42.644;23.336;2023-08-01T11:04:23;93632.97;;;29.25;41.68
1472;BME280;963;42.644;23.336;2023-08-01T11:06:50;93636.94;;;29.41;41.08
1472;BME280;963;42.644;23.336;2023-08-01T11:09:17;93628.38;;;29.76;40.27
1472;BME280;963;42.644;23.336;2023-08-01T11:11:43;93608.91;;;29.77;39.41
1472;BME280;963;42.644;23.336;2023-08-01T11:14:09;93625.31;;;29.29;40.04
1472;BME280;963;42.644;23.336;2023-08-01T11:16:34;93621.88;;;29.23;39.56
1472;BME280;963;42.644;23.336;2023-08-01T11:19:02;93618.16;;;29.15;40.21
1472;BME280;963;42.644;23.336;2023-08-01T11:21:27;93617.66;;;29.00;40.41
1472;BME280;963;42.644;23.336;2023-08-01T11:23:53;93619.63;;;29.05;40.18
1472;BME280;963;42.644;23.336;2023-08-01T11:26:19;93609.06;;;29.18;40.03
1472;BME280;963;42.644;23.336;2023-08-01T11:28:45;93596.75;;;29.17;40.09
1472;BME280;963;42.644;23.336;2023-08-01T11:31:11;93593.34;;;29.44;40.31
1472;BME280;963;42.644;23.336;2023-08-01T11:33:38;93583.75;;;29.66;39.98
1472;BME280;963;42.644;23.336;2023-08-01T11:36:04;93588.16;;;29.69;39.51
1472;BME280;963;42.644;23.336;2023-08-01T11:38:33;93587.44;;;29.85;39.72
1472;BME280;963;42.644;23.336;2023-08-01T11:41:03;93585.44;;;30.13;38.87
1472;BME280;963;42.644;23.336;2023-08-01T11:43:40;93583.44;;;30.25;38.75
1472;BME280;963;42.644;23.336;2023-08-01T11:46:06;93587.16;;;30.05;39.34
1472;BME280;963;42.644;23.336;2023-08-01T11:48:31;93586.41;;;30.22;38.46
1472;BME280;963;42.644;23.336;2023-08-01T11:51:00;93581.25;;;30.07;37.68
1472;BME280;963;42.644;23.336;2023-08-01T11:53:26;93582.50;;;30.06;38.03
1472;BME280;963;42.644;23.336;2023-08-01T11:55:53;93588.41;;;30.10;37.93
1472;BME280;963;42.644;23.336;2023-08-01T11:58:32;93572.81;;;30.27;38.05
1472;BME280;963;42.644;23.336;2023-08-01T12:01:06;93568.81;;;30.51;37.39
1472;BME280;963;42.644;23.336;2023-08-01T12:03:32;93554.25;;;30.42;37.25
1472;BME280;963;42.644;23.336;2023-08-01T12:06:05;93548.81;;;30.54;36.75
1472;BME280;963;42.644;23.336;2023-08-01T12:08:33;93547.81;;;30.62;37.04
1472;BME280;963;42.644;23.336;2023-08-01T12:10:59;93552.34;;;30.90;36.91
1472;BME280;963;42.644;23.336;2023-08-01T12:13:26;93546.03;;;31.17;36.35
1472;BME280;963;42.644;23.336;2023-08-01T12:15:54;93546.72;;;30.76;36.85
1472;BME280;963;42.644;23.336;2023-08-01T12:18:26;93551.03;;;31.02;36.11
1472;BME280;963;42.644;23.336;2023-08-01T12:20:52;93540.31;;;31.15;35.82
1472;BME280;963;42.644;23.336;2023-08-01T12:23:17;93547.56;;;31.42;34.87
1472;BME280;963;42.644;23.336;2023-08-01T12:25:43;93538.22;;;31.68;33.75
1472;BME280;963;42.644;23.336;2023-08-01T12:28:09;93529.75;;;31.77;33.21
1472;BME280;963;42.644;23.336;2023-08-01T12:30:34;93521.44;;;31.64;34.01
1472;BME280;963;42.644;23.336;2023-08-01T12:33:00;93519.78;;;31.85;33.72
1472;BME280;963;42.644;23.336;2023-08-01T12:35:28;93521.53;;;32.07;33.02
1472;BME280;963;42.644;23.336;2023-08-01T12:37:53;93528.56;;;31.73;31.79
1472;BME280;963;42.644;23.336;2023-08-01T12:40:19;93516.72;;;31.94;32.24
1472;BME280;963;42.644;23.336;2023-08-01T12:42:46;93514.78;;;32.14;32.35
1472;BME280;963;42.644;23.336;2023-08-01T12:45:11;93517.50;;;32.38;32.51
1472;BME280;963;42.644;23.336;2023-08-01T12:47:37;93517.81;;;32.35;31.52
1472;BME280;963;42.644;23.336;2023-08-01T12:50:02;93519.56;;;32.51;33.35
1472;BME280;963;42.644;23.336;2023-08-01T12:52:29;93510.06;;;32.57;33.67
1472;BME280;963;42.644;23.336;2023-08-01T12:54:54;93514.66;;;32.87;33.12
1472;BME280;963;42.644;23.336;2023-08-01T12:57:19;93507.19;;;33.06;32.90
1472;BME280;963;42.644;23.336;2023-08-01T12:59:45;93501.38;;;33.15;32.91
1472;BME280;963;42.644;23.336;2023-08-01T13:02:10;93502.22;;;33.23;33.03
1472;BME280;963;42.644;23.336;2023-08-01T13:04:36;93491.50;;;33.12;33.50
1472;BME280;963;42.644;23.336;2023-08-01T13:07:01;93496.34;;;33.19;33.46
1472;BME280;963;42.644;23.336;2023-08-01T13:09:26;93490.91;;;33.19;32.71
1472;BME280;963;42.644;23.336;2023-08-01T13:11:52;93479.09;;;31.98;33.97
1472;BME280;963;42.644;23.336;2023-08-01T13:14:18;93474.41;;;32.18;33.63
1472;BME280;963;42.644;23.336;2023-08-01T13:16:43;93476.91;;;31.67;34.06
1472;BME280;963;42.644;23.336;2023-08-01T13:19:09;93481.19;;;31.32;34.05
1472;BME280;963;42.644;23.336;2023-08-01T13:21:34;93474.88;;;31.13;34.01
1472;BME280;963;42.644;23.336;2023-08-01T13:24:00;93464.88;;;31.32;32.87
1472;BME280;963;42.644;23.336;2023-08-01T13:26:35;93480.06;;;31.47;33.30
1472;BME280;963;42.644;23.336;2023-08-01T13:29:01;93467.38;;;31.55;33.51